Aviation Digital Data Service (ADDS)

Output produced by METARs form (2107 UTC 24 April 2018)
found at http://aviationweather.gov/adds/metars/
 
KJAN 241720Z 2418/2518 31006KT P6SM SCT025 BKN035 
     TEMPO 2418/2420 BKN025 
     FM250900 33003KT P6SM SCT250